sensor_id;sensor_type;location;lat;lon;timestamp;P1;durP1;ratioP1;P2;durP2;ratioP2
4021;SDS011;2025;48.260;16.432;2022-11-20T00:02:47;20.30;;;6.90;;
4021;SDS011;2025;48.260;16.432;2022-11-20T00:05:14;19.52;;;6.82;;
4021;SDS011;2025;48.260;16.432;2022-11-20T00:07:43;17.20;;;6.68;;
4021;SDS011;2025;48.260;16.432;2022-11-20T00:10:11;15.73;;;6.88;;
4021;SDS011;2025;48.260;16.432;2022-11-20T00:12:38;17.42;;;6.90;;
4021;SDS011;2025;48.260;16.432;2022-11-20T00:15:06;17.83;;;7.55;;
4021;SDS011;2025;48.260;16.432;2022-11-20T00:17:34;17.02;;;6.28;;
4021;SDS011;2025;48.260;16.432;2022-11-20T00:22:27;16.67;;;6.25;;
4021;SDS011;2025;48.260;16.432;2022-11-20T00:24:56;14.52;;;5.70;;
4021;SDS011;2025;48.260;16.432;2022-11-20T00:27:23;19.02;;;7.03;;
4021;SDS011;2025;48.260;16.432;2022-11-20T00:29:51;19.50;;;7.32;;
4021;SDS011;2025;48.260;16.432;2022-11-20T00:32:17;17.27;;;5.65;;
4021;SDS011;2025;48.260;16.432;2022-11-20T00:37:11;20.75;;;6.80;;
4021;SDS011;2025;48.260;16.432;2022-11-20T00:42:06;14.07;;;5.25;;
4021;SDS011;2025;48.260;16.432;2022-11-20T00:44:34;20.23;;;7.47;;
4021;SDS011;2025;48.260;16.432;2022-11-20T00:49:27;15.75;;;6.75;;
4021;SDS011;2025;48.260;16.432;2022-11-20T00:51:54;16.35;;;8.32;;
4021;SDS011;2025;48.260;16.432;2022-11-20T00:56:48;16.77;;;6.63;;
4021;SDS011;2025;48.260;16.432;2022-11-20T01:01:43;16.95;;;6.40;;
4021;SDS011;2025;48.260;16.432;2022-11-20T01:04:10;18.48;;;7.07;;
4021;SDS011;2025;48.260;16.432;2022-11-20T01:09:07;18.60;;;6.43;;
4021;SDS011;2025;48.260;16.432;2022-11-20T01:11:37;18.17;;;7.70;;
4021;SDS011;2025;48.260;16.432;2022-11-20T01:14:07;21.50;;;8.25;;
4021;SDS011;2025;48.260;16.432;2022-11-20T01:16:38;19.52;;;8.18;;
4021;SDS011;2025;48.260;16.432;2022-11-20T01:19:07;21.10;;;7.53;;
4021;SDS011;2025;48.260;16.432;2022-11-20T01:21:37;21.13;;;7.30;;
4021;SDS011;2025;48.260;16.432;2022-11-20T01:24:06;18.38;;;7.38;;
4021;SDS011;2025;48.260;16.432;2022-11-20T01:26:36;20.35;;;8.15;;
4021;SDS011;2025;48.260;16.432;2022-11-20T01:29:05;18.73;;;6.45;;
4021;SDS011;2025;48.260;16.432;2022-11-20T01:31:33;19.13;;;6.60;;
4021;SDS011;2025;48.260;16.432;2022-11-20T01:34:04;18.90;;;7.30;;
4021;SDS011;2025;48.260;16.432;2022-11-20T01:36:34;21.17;;;7.47;;
4021;SDS011;2025;48.260;16.432;2022-11-20T01:39:03;18.60;;;11.88;;
4021;SDS011;2025;48.260;16.432;2022-11-20T01:41:32;22.85;;;7.63;;
4021;SDS011;2025;48.260;16.432;2022-11-20T01:44:18;19.58;;;7.32;;
4021;SDS011;2025;48.260;16.432;2022-11-20T01:46:51;19.02;;;10.75;;
4021;SDS011;2025;48.260;16.432;2022-11-20T01:49:25;21.05;;;7.68;;
4021;SDS011;2025;48.260;16.432;2022-11-20T01:51:58;21.50;;;8.10;;
4021;SDS011;2025;48.260;16.432;2022-11-20T01:54:32;20.67;;;7.35;;
4021;SDS011;2025;48.260;16.432;2022-11-20T01:57:02;21.42;;;8.93;;
4021;SDS011;2025;48.260;16.432;2022-11-20T01:59:34;19.65;;;7.28;;
4021;SDS011;2025;48.260;16.432;2022-11-20T02:02:06;20.92;;;8.00;;
4021;SDS011;2025;48.260;16.432;2022-11-20T02:04:34;20.63;;;7.20;;
4021;SDS011;2025;48.260;16.432;2022-11-20T02:07:02;18.45;;;7.85;;
4021;SDS011;2025;48.260;16.432;2022-11-20T02:09:31;19.70;;;8.60;;
4021;SDS011;2025;48.260;16.432;2022-11-20T02:11:58;19.90;;;6.60;;
4021;SDS011;2025;48.260;16.432;2022-11-20T02:14:25;20.30;;;7.65;;
4021;SDS011;2025;48.260;16.432;2022-11-20T02:16:53;21.58;;;7.18;;
4021;SDS011;2025;48.260;16.432;2022-11-20T02:19:22;19.85;;;7.25;;
4021;SDS011;2025;48.260;16.432;2022-11-20T02:21:55;20.38;;;8.85;;
4021;SDS011;2025;48.260;16.432;2022-11-20T02:24:29;18.88;;;7.32;;
4021;SDS011;2025;48.260;16.432;2022-11-20T02:26:57;19.70;;;7.70;;
4021;SDS011;2025;48.260;16.432;2022-11-20T02:29:28;20.40;;;8.02;;
4021;SDS011;2025;48.260;16.432;2022-11-20T02:32:00;18.75;;;6.38;;
4021;SDS011;2025;48.260;16.432;2022-11-20T02:34:28;21.13;;;7.50;;
4021;SDS011;2025;48.260;16.432;2022-11-20T02:39:23;18.42;;;6.50;;
4021;SDS011;2025;48.260;16.432;2022-11-20T02:41:54;18.92;;;7.55;;
4021;SDS011;2025;48.260;16.432;2022-11-20T02:44:22;20.45;;;7.43;;
4021;SDS011;2025;48.260;16.432;2022-11-20T02:46:49;20.25;;;7.43;;
4021;SDS011;2025;48.260;16.432;2022-11-20T02:51:43;19.30;;;6.90;;
4021;SDS011;2025;48.260;16.432;2022-11-20T02:56:37;20.58;;;7.00;;
4021;SDS011;2025;48.260;16.432;2022-11-20T02:59:06;19.45;;;7.75;;
4021;SDS011;2025;48.260;16.432;2022-11-20T03:01:33;18.05;;;6.70;;
4021;SDS011;2025;48.260;16.432;2022-11-20T03:04:00;19.92;;;7.57;;
4021;SDS011;2025;48.260;16.432;2022-11-20T03:06:27;21.33;;;8.55;;
4021;SDS011;2025;48.260;16.432;2022-11-20T03:08:54;22.33;;;8.48;;
4021;SDS011;2025;48.260;16.432;2022-11-20T03:11:21;20.95;;;7.47;;
4021;SDS011;2025;48.260;16.432;2022-11-20T03:13:48;20.58;;;8.55;;
4021;SDS011;2025;48.260;16.432;2022-11-20T03:16:18;20.45;;;9.13;;
4021;SDS011;2025;48.260;16.432;2022-11-20T03:18:46;23.02;;;8.15;;
4021;SDS011;2025;48.260;16.432;2022-11-20T03:21:13;20.05;;;7.85;;
4021;SDS011;2025;48.260;16.432;2022-11-20T03:23:41;24.45;;;8.95;;
4021;SDS011;2025;48.260;16.432;2022-11-20T03:26:09;21.70;;;8.27;;
4021;SDS011;2025;48.260;16.432;2022-11-20T03:28:37;20.80;;;7.10;;
4021;SDS011;2025;48.260;16.432;2022-11-20T03:31:05;17.35;;;6.93;;
4021;SDS011;2025;48.260;16.432;2022-11-20T03:33:38;20.83;;;10.68;;
4021;SDS011;2025;48.260;16.432;2022-11-20T03:36:06;19.67;;;7.72;;
4021;SDS011;2025;48.260;16.432;2022-11-20T03:38:34;18.70;;;7.68;;
4021;SDS011;2025;48.260;16.432;2022-11-20T03:41:02;20.25;;;7.85;;
4021;SDS011;2025;48.260;16.432;2022-11-20T03:43:30;24.13;;;8.40;;
4021;SDS011;2025;48.260;16.432;2022-11-20T03:45:58;20.08;;;7.78;;
4021;SDS011;2025;48.260;16.432;2022-11-20T03:48:25;22.60;;;8.40;;
4021;SDS011;2025;48.260;16.432;2022-11-20T03:50:54;19.48;;;8.13;;
4021;SDS011;2025;48.260;16.432;2022-11-20T03:53:33;21.30;;;8.07;;
4021;SDS011;2025;48.260;16.432;2022-11-20T03:56:00;20.90;;;7.75;;
4021;SDS011;2025;48.260;16.432;2022-11-20T04:00:53;22.38;;;9.43;;
4021;SDS011;2025;48.260;16.432;2022-11-20T04:05:47;20.33;;;7.85;;
4021;SDS011;2025;48.260;16.432;2022-11-20T04:08:16;22.75;;;7.40;;
4021;SDS011;2025;48.260;16.432;2022-11-20T04:10:43;18.58;;;6.47;;
4021;SDS011;2025;48.260;16.432;2022-11-20T04:13:10;21.65;;;7.90;;
4021;SDS011;2025;48.260;16.432;2022-11-20T04:18:04;23.90;;;8.30;;
4021;SDS011;2025;48.260;16.432;2022-11-20T04:20:31;18.98;;;7.32;;
4021;SDS011;2025;48.260;16.432;2022-11-20T04:25:26;20.98;;;6.95;;
4021;SDS011;2025;48.260;16.432;2022-11-20T04:27:53;17.48;;;6.55;;
4021;SDS011;2025;48.260;16.432;2022-11-20T04:30:21;17.77;;;6.47;;
4021;SDS011;2025;48.260;16.432;2022-11-20T04:32:48;21.67;;;7.80;;
4021;SDS011;2025;48.260;16.432;2022-11-20T04:35:15;20.45;;;6.93;;
4021;SDS011;2025;48.260;16.432;2022-11-20T04:37:42;18.40;;;6.53;;
4021;SDS011;2025;48.260;16.432;2022-11-20T04:40:09;21.70;;;7.80;;
4021;SDS011;2025;48.260;16.432;2022-11-20T04:42:39;21.10;;;6.53;;
4021;SDS011;2025;48.260;16.432;2022-11-20T04:45:06;17.02;;;6.93;;
4021;SDS011;2025;48.260;16.432;2022-11-20T04:47:33;21.88;;;7.85;;
4021;SDS011;2025;48.260;16.432;2022-11-20T04:50:00;16.50;;;6.95;;
4021;SDS011;2025;48.260;16.432;2022-11-20T04:52:28;19.00;;;7.22;;
4021;SDS011;2025;48.260;16.432;2022-11-20T04:54:55;20.98;;;7.85;;
4021;SDS011;2025;48.260;16.432;2022-11-20T04:57:22;21.40;;;7.53;;
4021;SDS011;2025;48.260;16.432;2022-11-20T04:59:51;25.00;;;10.35;;
4021;SDS011;2025;48.260;16.432;2022-11-20T05:02:18;26.83;;;8.57;;
4021;SDS011;2025;48.260;16.432;2022-11-20T05:04:45;18.52;;;8.02;;
4021;SDS011;2025;48.260;16.432;2022-11-20T05:07:13;22.58;;;8.23;;
4021;SDS011;2025;48.260;16.432;2022-11-20T05:09:40;19.40;;;6.93;;
4021;SDS011;2025;48.260;16.432;2022-11-20T05:12:07;21.88;;;8.45;;
4021;SDS011;2025;48.260;16.432;2022-11-20T05:14:34;22.10;;;7.95;;
4021;SDS011;2025;48.260;16.432;2022-11-20T05:17:03;25.48;;;8.20;;
4021;SDS011;2025;48.260;16.432;2022-11-20T05:19:30;22.13;;;8.15;;
4021;SDS011;2025;48.260;16.432;2022-11-20T05:21:57;23.08;;;8.05;;
4021;SDS011;2025;48.260;16.432;2022-11-20T05:24:24;19.02;;;7.15;;
4021;SDS011;2025;48.260;16.432;2022-11-20T05:26:51;23.70;;;8.18;;
4021;SDS011;2025;48.260;16.432;2022-11-20T05:31:45;20.17;;;7.72;;
4021;SDS011;2025;48.260;16.432;2022-11-20T05:36:40;21.27;;;6.88;;
4021;SDS011;2025;48.260;16.432;2022-11-20T05:39:07;22.80;;;8.85;;
4021;SDS011;2025;48.260;16.432;2022-11-20T05:41:34;24.63;;;9.32;;
4021;SDS011;2025;48.260;16.432;2022-11-20T05:44:01;19.45;;;7.05;;
4021;SDS011;2025;48.260;16.432;2022-11-20T05:46:29;21.40;;;7.72;;
4021;SDS011;2025;48.260;16.432;2022-11-20T05:48:56;20.20;;;8.05;;
4021;SDS011;2025;48.260;16.432;2022-11-20T05:51:26;20.13;;;8.20;;
4021;SDS011;2025;48.260;16.432;2022-11-20T05:53:55;24.20;;;9.38;;
4021;SDS011;2025;48.260;16.432;2022-11-20T05:56:23;21.85;;;8.35;;
4021;SDS011;2025;48.260;16.432;2022-11-20T05:58:50;23.42;;;8.38;;
4021;SDS011;2025;48.260;16.432;2022-11-20T06:01:19;20.48;;;8.85;;
4021;SDS011;2025;48.260;16.432;2022-11-20T06:03:47;25.05;;;9.88;;
4021;SDS011;2025;48.260;16.432;2022-11-20T06:06:16;27.77;;;9.82;;
4021;SDS011;2025;48.260;16.432;2022-11-20T06:08:45;24.65;;;9.27;;
4021;SDS011;2025;48.260;16.432;2022-11-20T06:11:13;25.45;;;9.63;;
4021;SDS011;2025;48.260;16.432;2022-11-20T06:13:41;23.05;;;7.43;;
4021;SDS011;2025;48.260;16.432;2022-11-20T06:16:09;27.48;;;10.50;;
4021;SDS011;2025;48.260;16.432;2022-11-20T06:18:37;25.33;;;10.70;;
4021;SDS011;2025;48.260;16.432;2022-11-20T06:21:06;23.05;;;10.18;;
4021;SDS011;2025;48.260;16.432;2022-11-20T06:23:34;25.38;;;9.10;;
4021;SDS011;2025;48.260;16.432;2022-11-20T06:26:03;25.95;;;9.65;;
4021;SDS011;2025;48.260;16.432;2022-11-20T06:28:32;26.73;;;11.65;;
4021;SDS011;2025;48.260;16.432;2022-11-20T06:30:59;21.33;;;8.65;;
4021;SDS011;2025;48.260;16.432;2022-11-20T06:33:27;26.38;;;9.52;;
4021;SDS011;2025;48.260;16.432;2022-11-20T06:35:56;26.02;;;9.43;;
4021;SDS011;2025;48.260;16.432;2022-11-20T06:38:23;26.50;;;10.07;;
4021;SDS011;2025;48.260;16.432;2022-11-20T06:40:51;25.40;;;9.45;;
4021;SDS011;2025;48.260;16.432;2022-11-20T06:43:20;25.48;;;9.98;;
4021;SDS011;2025;48.260;16.432;2022-11-20T06:45:51;22.48;;;9.00;;
4021;SDS011;2025;48.260;16.432;2022-11-20T06:48:18;25.15;;;9.43;;
4021;SDS011;2025;48.260;16.432;2022-11-20T06:50:46;25.15;;;9.88;;
4021;SDS011;2025;48.260;16.432;2022-11-20T06:53:13;25.40;;;9.70;;
4021;SDS011;2025;48.260;16.432;2022-11-20T06:55:41;23.90;;;9.32;;
4021;SDS011;2025;48.260;16.432;2022-11-20T06:58:09;24.77;;;8.32;;
4021;SDS011;2025;48.260;16.432;2022-11-20T07:00:37;27.38;;;9.65;;
4021;SDS011;2025;48.260;16.432;2022-11-20T07:03:05;28.08;;;10.50;;
4021;SDS011;2025;48.260;16.432;2022-11-20T07:05:33;29.40;;;10.35;;
4021;SDS011;2025;48.260;16.432;2022-11-20T07:08:01;27.10;;;9.65;;
4021;SDS011;2025;48.260;16.432;2022-11-20T07:10:29;27.75;;;9.57;;
4021;SDS011;2025;48.260;16.432;2022-11-20T07:12:56;25.42;;;9.20;;
4021;SDS011;2025;48.260;16.432;2022-11-20T07:15:24;26.42;;;10.23;;
4021;SDS011;2025;48.260;16.432;2022-11-20T07:17:53;27.27;;;10.27;;
4021;SDS011;2025;48.260;16.432;2022-11-20T07:20:20;27.77;;;10.63;;
4021;SDS011;2025;48.260;16.432;2022-11-20T07:22:52;24.95;;;8.98;;
4021;SDS011;2025;48.260;16.432;2022-11-20T07:25:21;26.60;;;10.32;;
4021;SDS011;2025;48.260;16.432;2022-11-20T07:27:48;28.38;;;10.18;;
4021;SDS011;2025;48.260;16.432;2022-11-20T07:30:15;27.35;;;9.35;;
4021;SDS011;2025;48.260;16.432;2022-11-20T07:32:42;26.65;;;9.93;;
4021;SDS011;2025;48.260;16.432;2022-11-20T07:35:14;29.15;;;14.27;;
4021;SDS011;2025;48.260;16.432;2022-11-20T07:37:41;29.38;;;9.80;;
4021;SDS011;2025;48.260;16.432;2022-11-20T07:40:11;31.02;;;10.13;;
4021;SDS011;2025;48.260;16.432;2022-11-20T07:42:38;29.08;;;10.88;;
4021;SDS011;2025;48.260;16.432;2022-11-20T07:45:06;26.00;;;10.57;;
4021;SDS011;2025;48.260;16.432;2022-11-20T07:47:34;22.75;;;8.40;;
4021;SDS011;2025;48.260;16.432;2022-11-20T07:50:02;24.00;;;12.10;;
4021;SDS011;2025;48.260;16.432;2022-11-20T07:52:31;25.55;;;8.68;;
4021;SDS011;2025;48.260;16.432;2022-11-20T07:54:58;25.63;;;10.50;;
4021;SDS011;2025;48.260;16.432;2022-11-20T07:57:26;27.73;;;10.25;;
4021;SDS011;2025;48.260;16.432;2022-11-20T07:59:53;24.52;;;10.43;;
4021;SDS011;2025;48.260;16.432;2022-11-20T08:02:20;27.42;;;10.18;;
4021;SDS011;2025;48.260;16.432;2022-11-20T08:04:47;29.25;;;9.90;;
4021;SDS011;2025;48.260;16.432;2022-11-20T08:07:14;26.15;;;9.18;;
4021;SDS011;2025;48.260;16.432;2022-11-20T08:09:43;20.80;;;8.20;;
4021;SDS011;2025;48.260;16.432;2022-11-20T08:12:10;26.23;;;10.85;;
4021;SDS011;2025;48.260;16.432;2022-11-20T08:15:00;24.50;;;10.15;;
4021;SDS011;2025;48.260;16.432;2022-11-20T08:17:28;22.80;;;8.70;;
4021;SDS011;2025;48.260;16.432;2022-11-20T08:19:55;25.88;;;9.43;;
4021;SDS011;2025;48.260;16.432;2022-11-20T08:22:22;24.55;;;9.70;;
4021;SDS011;2025;48.260;16.432;2022-11-20T08:24:51;27.83;;;10.45;;
4021;SDS011;2025;48.260;16.432;2022-11-20T08:27:18;26.48;;;9.20;;
4021;SDS011;2025;48.260;16.432;2022-11-20T08:29:46;26.27;;;9.77;;
4021;SDS011;2025;48.260;16.432;2022-11-20T08:32:13;23.05;;;8.68;;
4021;SDS011;2025;48.260;16.432;2022-11-20T08:34:40;25.92;;;9.50;;
4021;SDS011;2025;48.260;16.432;2022-11-20T08:37:07;25.27;;;10.15;;
4021;SDS011;2025;48.260;16.432;2022-11-20T08:42:06;25.80;;;9.18;;
4021;SDS011;2025;48.260;16.432;2022-11-20T08:44:33;22.92;;;9.43;;
4021;SDS011;2025;48.260;16.432;2022-11-20T08:47:00;30.48;;;11.25;;
4021;SDS011;2025;48.260;16.432;2022-11-20T08:49:27;30.63;;;10.90;;
4021;SDS011;2025;48.260;16.432;2022-11-20T08:51:54;23.77;;;9.10;;
4021;SDS011;2025;48.260;16.432;2022-11-20T08:54:21;29.10;;;13.02;;
4021;SDS011;2025;48.260;16.432;2022-11-20T08:56:48;32.35;;;10.98;;
4021;SDS011;2025;48.260;16.432;2022-11-20T08:59:17;28.15;;;10.25;;
4021;SDS011;2025;48.260;16.432;2022-11-20T09:01:44;30.90;;;11.77;;
4021;SDS011;2025;48.260;16.432;2022-11-20T09:04:11;26.67;;;8.93;;
4021;SDS011;2025;48.260;16.432;2022-11-20T09:06:39;27.65;;;10.43;;
4021;SDS011;2025;48.260;16.432;2022-11-20T09:09:07;30.02;;;10.40;;
4021;SDS011;2025;48.260;16.432;2022-11-20T09:11:34;29.35;;;12.75;;
4021;SDS011;2025;48.260;16.432;2022-11-20T09:14:01;25.65;;;9.88;;
4021;SDS011;2025;48.260;16.432;2022-11-20T09:16:31;27.27;;;9.90;;
4021;SDS011;2025;48.260;16.432;2022-11-20T09:18:58;26.05;;;10.23;;
4021;SDS011;2025;48.260;16.432;2022-11-20T09:21:25;27.60;;;11.15;;
4021;SDS011;2025;48.260;16.432;2022-11-20T09:23:52;24.15;;;9.73;;
4021;SDS011;2025;48.260;16.432;2022-11-20T09:26:19;26.52;;;10.35;;
4021;SDS011;2025;48.260;16.432;2022-11-20T09:28:46;30.90;;;9.63;;
4021;SDS011;2025;48.260;16.432;2022-11-20T09:31:17;25.02;;;9.70;;
4021;SDS011;2025;48.260;16.432;2022-11-20T09:33:49;30.55;;;10.50;;
4021;SDS011;2025;48.260;16.432;2022-11-20T09:36:16;27.30;;;11.60;;
4021;SDS011;2025;48.260;16.432;2022-11-20T09:38:44;29.70;;;11.02;;
4021;SDS011;2025;48.260;16.432;2022-11-20T09:41:18;29.83;;;9.88;;
4021;SDS011;2025;48.260;16.432;2022-11-20T09:44:01;27.73;;;11.75;;
4021;SDS011;2025;48.260;16.432;2022-11-20T09:46:40;27.67;;;10.85;;
4021;SDS011;2025;48.260;16.432;2022-11-20T09:49:21;28.10;;;11.13;;
4021;SDS011;2025;48.260;16.432;2022-11-20T09:51:57;30.77;;;11.07;;
4021;SDS011;2025;48.260;16.432;2022-11-20T09:54:27;29.20;;;11.60;;
4021;SDS011;2025;48.260;16.432;2022-11-20T09:56:59;25.27;;;9.93;;
4021;SDS011;2025;48.260;16.432;2022-11-20T09:59:33;32.95;;;11.90;;
4021;SDS011;2025;48.260;16.432;2022-11-20T10:02:11;29.80;;;10.95;;
4021;SDS011;2025;48.260;16.432;2022-11-20T10:04:45;32.65;;;11.35;;
4021;SDS011;2025;48.260;16.432;2022-11-20T10:07:19;27.40;;;11.38;;
4021;SDS011;2025;48.260;16.432;2022-11-20T10:09:50;30.80;;;11.38;;
4021;SDS011;2025;48.260;16.432;2022-11-20T10:12:22;31.23;;;12.98;;
4021;SDS011;2025;48.260;16.432;2022-11-20T10:15:11;29.80;;;12.32;;
4021;SDS011;2025;48.260;16.432;2022-11-20T10:17:53;24.95;;;9.43;;
4021;SDS011;2025;48.260;16.432;2022-11-20T10:20:35;26.77;;;10.65;;
4021;SDS011;2025;48.260;16.432;2022-11-20T10:23:19;31.20;;;11.27;;
4021;SDS011;2025;48.260;16.432;2022-11-20T10:26:01;34.15;;;11.10;;
4021;SDS011;2025;48.260;16.432;2022-11-20T10:28:33;24.83;;;10.68;;
4021;SDS011;2025;48.260;16.432;2022-11-20T10:31:11;28.27;;;10.73;;
4021;SDS011;2025;48.260;16.432;2022-11-20T10:33:51;31.65;;;12.82;;
4021;SDS011;2025;48.260;16.432;2022-11-20T10:36:22;30.23;;;14.05;;
4021;SDS011;2025;48.260;16.432;2022-11-20T10:38:54;29.98;;;11.43;;
4021;SDS011;2025;48.260;16.432;2022-11-20T10:41:24;31.63;;;13.77;;
4021;SDS011;2025;48.260;16.432;2022-11-20T10:44:02;31.10;;;12.48;;
4021;SDS011;2025;48.260;16.432;2022-11-20T10:46:34;26.65;;;10.95;;
4021;SDS011;2025;48.260;16.432;2022-11-20T10:49:06;34.47;;;12.25;;
4021;SDS011;2025;48.260;16.432;2022-11-20T10:51:43;34.28;;;13.95;;
4021;SDS011;2025;48.260;16.432;2022-11-20T10:54:26;28.20;;;11.77;;
4021;SDS011;2025;48.260;16.432;2022-11-20T11:02:22;30.23;;;11.43;;
4021;SDS011;2025;48.260;16.432;2022-11-20T11:04:51;31.40;;;12.73;;
4021;SDS011;2025;48.260;16.432;2022-11-20T11:07:22;26.13;;;12.40;;
4021;SDS011;2025;48.260;16.432;2022-11-20T11:09:53;30.50;;;12.05;;
4021;SDS011;2025;48.260;16.432;2022-11-20T11:12:21;30.70;;;13.38;;
4021;SDS011;2025;48.260;16.432;2022-11-20T11:14:50;27.98;;;11.90;;
4021;SDS011;2025;48.260;16.432;2022-11-20T11:17:20;30.85;;;14.77;;
4021;SDS011;2025;48.260;16.432;2022-11-20T11:20:05;31.67;;;12.07;;
4021;SDS011;2025;48.260;16.432;2022-11-20T11:22:44;30.83;;;13.80;;
4021;SDS011;2025;48.260;16.432;2022-11-20T11:25:19;30.15;;;12.30;;
4021;SDS011;2025;48.260;16.432;2022-11-20T11:27:59;29.33;;;11.75;;
4021;SDS011;2025;48.260;16.432;2022-11-20T11:30:28;27.67;;;11.93;;
4021;SDS011;2025;48.260;16.432;2022-11-20T11:33:04;28.95;;;11.95;;
4021;SDS011;2025;48.260;16.432;2022-11-20T11:35:33;28.40;;;11.02;;
4021;SDS011;2025;48.260;16.432;2022-11-20T11:38:07;31.80;;;12.88;;
4021;SDS011;2025;48.260;16.432;2022-11-20T11:40:40;30.70;;;12.73;;
4021;SDS011;2025;48.260;16.432;2022-11-20T11:43:16;31.63;;;15.05;;
4021;SDS011;2025;48.260;16.432;2022-11-20T11:46:04;31.23;;;13.35;;
4021;SDS011;2025;48.260;16.432;2022-11-20T11:48:55;28.23;;;12.25;;
4021;SDS011;2025;48.260;16.432;2022-11-20T11:51:24;29.30;;;12.27;;
4021;SDS011;2025;48.260;16.432;2022-11-20T11:53:57;30.42;;;12.90;;
4021;SDS011;2025;48.260;16.432;2022-11-20T11:56:27;27.48;;;11.77;;
4021;SDS011;2025;48.260;16.432;2022-11-20T11:58:54;28.13;;;12.98;;
4021;SDS011;2025;48.260;16.432;2022-11-20T12:01:27;28.67;;;12.95;;
4021;SDS011;2025;48.260;16.432;2022-11-20T12:04:00;31.33;;;12.45;;
4021;SDS011;2025;48.260;16.432;2022-11-20T12:06:31;32.13;;;13.13;;
4021;SDS011;2025;48.260;16.432;2022-11-20T12:09:03;31.33;;;12.35;;
4021;SDS011;2025;48.260;16.432;2022-11-20T12:11:33;28.35;;;12.70;;
4021;SDS011;2025;48.260;16.432;2022-11-20T12:14:09;28.63;;;13.40;;
4021;SDS011;2025;48.260;16.432;2022-11-20T12:16:40;32.38;;;12.40;;
4021;SDS011;2025;48.260;16.432;2022-11-20T12:19:08;28.50;;;11.13;;
4021;SDS011;2025;48.260;16.432;2022-11-20T12:21:41;30.13;;;12.70;;
4021;SDS011;2025;48.260;16.432;2022-11-20T12:24:24;29.20;;;11.52;;
4021;SDS011;2025;48.260;16.432;2022-11-20T12:27:12;29.63;;;11.75;;
4021;SDS011;2025;48.260;16.432;2022-11-20T12:30:04;32.50;;;14.05;;
4021;SDS011;2025;48.260;16.432;2022-11-20T12:35:32;27.98;;;11.85;;
4021;SDS011;2025;48.260;16.432;2022-11-20T12:41:25;27.42;;;11.35;;
4021;SDS011;2025;48.260;16.432;2022-11-20T12:44:24;26.27;;;10.55;;
4021;SDS011;2025;48.260;16.432;2022-11-20T12:47:24;26.38;;;10.57;;
4021;SDS011;2025;48.260;16.432;2022-11-20T12:50:02;25.92;;;11.80;;
4021;SDS011;2025;48.260;16.432;2022-11-20T12:52:42;26.77;;;11.57;;
4021;SDS011;2025;48.260;16.432;2022-11-20T12:55:16;22.95;;;10.30;;
4021;SDS011;2025;48.260;16.432;2022-11-20T12:57:52;25.90;;;12.88;;
4021;SDS011;2025;48.260;16.432;2022-11-20T13:00:23;29.92;;;12.38;;
4021;SDS011;2025;48.260;16.432;2022-11-20T13:03:05;25.08;;;10.93;;
4021;SDS011;2025;48.260;16.432;2022-11-20T13:05:44;27.95;;;10.88;;
4021;SDS011;2025;48.260;16.432;2022-11-20T13:08:23;25.05;;;10.93;;
4021;SDS011;2025;48.260;16.432;2022-11-20T13:10:58;27.95;;;11.40;;
4021;SDS011;2025;48.260;16.432;2022-11-20T13:13:39;27.90;;;11.27;;
4021;SDS011;2025;48.260;16.432;2022-11-20T13:16:19;25.48;;;10.52;;
4021;SDS011;2025;48.260;16.432;2022-11-20T13:18:51;28.85;;;11.50;;
4021;SDS011;2025;48.260;16.432;2022-11-20T13:21:21;24.83;;;11.32;;
4021;SDS011;2025;48.260;16.432;2022-11-20T13:24:03;23.67;;;10.13;;
4021;SDS011;2025;48.260;16.432;2022-11-20T13:26:31;27.25;;;12.38;;
4021;SDS011;2025;48.260;16.432;2022-11-20T13:29:01;29.17;;;11.63;;
4021;SDS011;2025;48.260;16.432;2022-11-20T13:31:34;25.15;;;10.57;;
4021;SDS011;2025;48.260;16.432;2022-11-20T13:34:05;27.80;;;11.23;;
4021;SDS011;2025;48.260;16.432;2022-11-20T13:36:33;26.98;;;11.73;;
4021;SDS011;2025;48.260;16.432;2022-11-20T13:39:01;31.63;;;11.85;;
4021;SDS011;2025;48.260;16.432;2022-11-20T13:41:30;30.95;;;12.30;;
4021;SDS011;2025;48.260;16.432;2022-11-20T13:44:09;26.15;;;10.93;;
4021;SDS011;2025;48.260;16.432;2022-11-20T13:46:41;25.33;;;11.38;;
4021;SDS011;2025;48.260;16.432;2022-11-20T13:49:10;31.55;;;12.48;;
4021;SDS011;2025;48.260;16.432;2022-11-20T13:51:45;30.52;;;11.55;;
4021;SDS011;2025;48.260;16.432;2022-11-20T13:54:29;26.60;;;11.38;;
4021;SDS011;2025;48.260;16.432;2022-11-20T13:57:17;27.83;;;10.50;;
4021;SDS011;2025;48.260;16.432;2022-11-20T14:00:12;29.38;;;10.75;;
4021;SDS011;2025;48.260;16.432;2022-11-20T14:02:41;24.85;;;10.00;;
4021;SDS011;2025;48.260;16.432;2022-11-20T14:05:15;27.25;;;10.63;;
4021;SDS011;2025;48.260;16.432;2022-11-20T14:07:47;31.63;;;12.65;;
4021;SDS011;2025;48.260;16.432;2022-11-20T14:10:21;27.73;;;11.98;;
4021;SDS011;2025;48.260;16.432;2022-11-20T14:12:50;27.02;;;14.13;;
4021;SDS011;2025;48.260;16.432;2022-11-20T14:15:26;30.75;;;11.60;;
4021;SDS011;2025;48.260;16.432;2022-11-20T14:17:55;29.67;;;11.73;;
4021;SDS011;2025;48.260;16.432;2022-11-20T14:20:24;27.00;;;11.75;;
4021;SDS011;2025;48.260;16.432;2022-11-20T14:22:53;29.23;;;11.18;;
4021;SDS011;2025;48.260;16.432;2022-11-20T14:25:22;25.10;;;10.57;;
4021;SDS011;2025;48.260;16.432;2022-11-20T14:27:52;29.05;;;11.13;;
4021;SDS011;2025;48.260;16.432;2022-11-20T14:30:22;27.85;;;12.23;;
4021;SDS011;2025;48.260;16.432;2022-11-20T14:32:52;24.75;;;10.52;;
4021;SDS011;2025;48.260;16.432;2022-11-20T14:35:24;28.08;;;10.40;;
4021;SDS011;2025;48.260;16.432;2022-11-20T14:37:53;29.15;;;10.52;;
4021;SDS011;2025;48.260;16.432;2022-11-20T14:40:24;27.77;;;13.93;;
4021;SDS011;2025;48.260;16.432;2022-11-20T14:42:54;29.65;;;11.27;;
4021;SDS011;2025;48.260;16.432;2022-11-20T14:45:22;29.52;;;11.15;;
4021;SDS011;2025;48.260;16.432;2022-11-20T14:47:53;27.02;;;11.40;;
4021;SDS011;2025;48.260;16.432;2022-11-20T14:50:23;30.10;;;12.93;;
4021;SDS011;2025;48.260;16.432;2022-11-20T14:52:53;33.13;;;12.57;;
4021;SDS011;2025;48.260;16.432;2022-11-20T14:55:25;27.92;;;11.38;;
4021;SDS011;2025;48.260;16.432;2022-11-20T14:57:54;31.70;;;12.48;;
4021;SDS011;2025;48.260;16.432;2022-11-20T15:00:23;29.80;;;10.68;;
4021;SDS011;2025;48.260;16.432;2022-11-20T15:02:51;25.40;;;11.13;;
4021;SDS011;2025;48.260;16.432;2022-11-20T15:05:20;29.42;;;12.98;;
4021;SDS011;2025;48.260;16.432;2022-11-20T15:07:50;28.27;;;11.32;;
4021;SDS011;2025;48.260;16.432;2022-11-20T15:10:20;26.40;;;10.70;;
4021;SDS011;2025;48.260;16.432;2022-11-20T15:12:49;29.40;;;11.98;;
4021;SDS011;2025;48.260;16.432;2022-11-20T15:15:20;24.58;;;11.38;;
4021;SDS011;2025;48.260;16.432;2022-11-20T15:17:49;29.73;;;10.75;;
4021;SDS011;2025;48.260;16.432;2022-11-20T15:20:18;26.83;;;11.18;;
4021;SDS011;2025;48.260;16.432;2022-11-20T15:22:48;26.73;;;11.20;;
4021;SDS011;2025;48.260;16.432;2022-11-20T15:25:15;27.70;;;11.52;;
4021;SDS011;2025;48.260;16.432;2022-11-20T15:27:44;29.95;;;12.27;;
4021;SDS011;2025;48.260;16.432;2022-11-20T15:30:15;29.67;;;12.05;;
4021;SDS011;2025;48.260;16.432;2022-11-20T15:32:44;32.70;;;14.23;;
4021;SDS011;2025;48.260;16.432;2022-11-20T15:35:12;28.55;;;14.63;;
4021;SDS011;2025;48.260;16.432;2022-11-20T15:37:41;28.30;;;11.68;;
4021;SDS011;2025;48.260;16.432;2022-11-20T15:40:09;28.88;;;11.35;;
4021;SDS011;2025;48.260;16.432;2022-11-20T15:42:36;32.30;;;13.60;;
4021;SDS011;2025;48.260;16.432;2022-11-20T15:45:23;28.65;;;12.65;;
4021;SDS011;2025;48.260;16.432;2022-11-20T15:47:51;26.02;;;11.40;;
4021;SDS011;2025;48.260;16.432;2022-11-20T15:50:18;25.42;;;11.32;;
4021;SDS011;2025;48.260;16.432;2022-11-20T15:52:47;28.35;;;11.65;;
4021;SDS011;2025;48.260;16.432;2022-11-20T15:55:14;27.63;;;11.60;;